Time;durP1;ratioP1;P1;durP2;ratioP2;P2;SDS_P1;SDS_P2;PMS_P1;PMS_P2;Temp;Humidity;BMP_temperature;BMP_pressure;BME280_temperature;BME280_humidity;BME280_pressure;Samples;Min_cycle;Max_cycle;Signal;HPM_P1;HPM_P2
2022/12/29 00:01:01;;;;;;;1.95;0.70;;;8.70;99.90;;;;;;6161561;23;20001;-71
2022/12/29 00:03:29;;;;;;;1.33;0.75;;;8.80;99.90;;;;;;6159564;23;20005;-71
2022/12/29 00:05:57;;;;;;;0.85;0.47;;;8.90;99.90;;;;;;6161540;23;20021;-71
2022/12/29 00:08:39;;;;;;;6.43;1.25;;;9.00;99.90;;;;;;6160769;23;20275;-71
2022/12/29 00:11:13;;;;;;;4.18;1.00;;;9.00;99.90;;;;;;6160718;23;20005;-71
2022/12/29 00:16:27;;;;;;;3.63;0.80;;;9.10;99.90;;;;;;6160992;23;20037;-71
2022/12/29 00:18:54;;;;;;;1.58;0.70;;;9.10;99.90;;;;;;6159261;23;20002;-71
2022/12/29 00:35:39;;;;;;;1.90;0.90;;;9.20;99.90;;;;;;6160432;23;20016;-71
2022/12/29 00:44:07;;;;;;;1.60;0.70;;;9.20;99.90;;;;;;6133758;23;20056;-71
2022/12/29 00:46:35;;;;;;;2.13;0.70;;;9.10;99.90;;;;;;6160432;23;20033;-71
2022/12/29 00:51:49;;;;;;;3.10;0.85;;;9.20;99.90;;;;;;6160751;23;20052;-71
2022/12/29 00:54:17;;;;;;;2.45;0.70;;;9.20;99.90;;;;;;6160381;23;20028;-71
2022/12/29 00:56:47;;;;;;;2.25;0.90;;;9.20;99.90;;;;;;6159182;23;20012;-71
2022/12/29 00:59:14;;;;;;;2.03;0.80;;;9.10;99.90;;;;;;6160482;23;20025;-71
2022/12/29 01:01:42;;;;;;;1.40;0.80;;;9.10;99.90;;;;;;6160283;23;20005;-71
2022/12/29 01:04:10;;;;;;;2.60;1.23;;;9.10;99.90;;;;;;6160907;23;20028;-71
2022/12/29 01:06:40;;;;;;;1.60;0.82;;;9.10;99.90;;;;;;6160179;23;20274;-70
2022/12/29 01:11:53;;;;;;;2.80;0.95;;;9.10;99.90;;;;;;6160226;23;20437;-71
2022/12/29 01:14:22;;;;;;;1.73;0.90;;;9.10;99.90;;;;;;6160613;23;20059;-71
2022/12/29 01:16:49;;;;;;;3.17;0.80;;;9.10;99.90;;;;;;6160104;23;20147;-71
2022/12/29 01:19:18;;;;;;;1.92;0.98;;;9.10;99.90;;;;;;6160715;23;20311;-71
2022/12/29 01:21:46;;;;;;;3.03;0.98;;;9.10;99.90;;;;;;6160056;23;20008;-71
2022/12/29 01:24:15;;;;;;;2.92;0.68;;;9.10;99.90;;;;;;6158795;23;20100;-71
2022/12/29 01:26:42;;;;;;;1.90;1.13;;;9.20;99.90;;;;;;6159918;23;20061;-71
2022/12/29 01:29:09;;;;;;;1.63;0.73;;;9.20;99.90;;;;;;6160134;23;20374;-71
2022/12/29 01:31:37;;;;;;;1.80;0.75;;;9.20;99.90;;;;;;6158750;23;20009;-71
2022/12/29 01:34:04;;;;;;;2.20;0.93;;;9.20;99.90;;;;;;6158650;23;20005;-71
2022/12/29 01:36:32;;;;;;;1.88;0.63;;;9.10;99.90;;;;;;6160006;23;20077;-71
2022/12/29 01:38:59;;;;;;;1.90;0.90;;;9.10;99.90;;;;;;6159240;23;20002;-71
2022/12/29 01:41:26;;;;;;;1.75;0.77;;;9.20;99.90;;;;;;6134176;23;20002;-71
2022/12/29 01:44:01;;;;;;;1.42;0.77;;;9.20;99.90;;;;;;6160096;23;20002;-71
2022/12/29 01:46:39;;;;;;;1.30;0.60;;;9.20;99.90;;;;;;6158664;23;20006;-71
2022/12/29 01:49:24;;;;;;;1.85;0.90;;;9.10;99.90;;;;;;6160446;23;20006;-71
2022/12/29 01:51:55;;;;;;;1.90;0.80;;;9.10;99.90;;;;;;6158639;23;20016;-72
2022/12/29 01:54:32;;;;;;;1.42;0.73;;;9.00;99.90;;;;;;6158805;23;20098;-72
2022/12/29 01:57:07;;;;;;;2.72;1.00;;;9.10;99.90;;;;;;6159873;23;20080;-72
2022/12/29 01:59:40;;;;;;;1.05;0.60;;;9.10;99.90;;;;;;6159932;23;20002;-72
2022/12/29 02:02:08;;;;;;;2.88;0.80;;;9.10;99.90;;;;;;6160301;23;20080;-71
2022/12/29 02:04:44;;;;;;;1.38;0.70;;;9.10;99.90;;;;;;6159738;23;20012;-71
2022/12/29 02:07:17;;;;;;;;;;;9.00;99.90;;;;;;6160248;23;20020;-71
2022/12/29 02:09:50;;;;;;;2.45;1.20;;;9.00;99.90;;;;;;6158558;23;19900;-71
2022/12/29 02:12:21;;;;;;;2.55;1.25;;;8.90;99.90;;;;;;6160119;23;20435;-71
2022/12/29 02:14:53;;;;;;;2.35;0.93;;;8.90;99.90;;;;;;6160543;23;20367;-71
2022/12/29 02:18:03;;;;;;;2.20;1.10;;;8.80;99.90;;;;;;6159807;23;20028;-71
2022/12/29 02:21:05;;;;;;;2.80;1.15;;;8.80;99.90;;;;;;6159830;23;19997;-71
2022/12/29 02:23:56;;;;;;;2.28;1.13;;;8.80;99.90;;;;;;6160306;23;20004;-71
2022/12/29 02:26:36;;;;;;;2.38;1.15;;;8.80;99.90;;;;;;6160085;23;20013;-71
2022/12/29 02:29:27;;;;;;;1.60;0.90;;;8.80;99.90;;;;;;6160479;23;20008;-71
2022/12/29 02:32:16;;;;;;;2.13;0.93;;;8.80;99.90;;;;;;6160316;23;19997;-71
2022/12/29 02:35:03;;;;;;;2.08;1.02;;;8.80;99.90;;;;;;6159654;23;20085;-71
2022/12/29 02:38:06;;;;;;;1.70;1.00;;;8.80;99.90;;;;;;6160031;23;20406;-71
2022/12/29 02:40:48;;;;;;;2.90;0.80;;;8.80;99.90;;;;;;6154220;23;20021;-71
2022/12/29 02:43:25;;;;;;;2.13;1.17;;;8.80;99.90;;;;;;6159673;23;20008;-71
2022/12/29 02:46:06;;;;;;;2.20;1.10;;;8.80;99.90;;;;;;6160392;23;20002;-71
2022/12/29 02:48:42;;;;;;;3.58;1.10;;;8.80;99.90;;;;;;6160264;23;20355;-71
2022/12/29 02:51:26;;;;;;;;;;;8.80;99.90;;;;;;6158838;23;20001;-71
2022/12/29 02:56:41;;;;;;;2.38;1.10;;;8.80;99.90;;;;;;6159947;23;20021;-71
2022/12/29 02:59:09;;;;;;;2.65;1.27;;;8.80;99.90;;;;;;6135082;23;20012;-71
2022/12/29 03:02:19;;;;;;;2.17;1.27;;;8.80;99.90;;;;;;6160130;23;20028;-71
2022/12/29 03:05:02;;;;;;;2.67;1.00;;;8.90;99.90;;;;;;6161287;23;20273;-71
2022/12/29 03:07:55;;;;;;;2.97;1.40;;;8.90;99.90;;;;;;6160306;23;20088;-71
2022/12/29 03:10:57;;;;;;;2.95;1.20;;;8.90;99.90;;;;;;6162057;23;20013;-71
2022/12/29 03:16:36;;;;;;;2.50;1.00;;;8.90;99.90;;;;;;6161245;23;20093;-71
2022/12/29 03:19:30;;;;;;;2.42;1.23;;;8.90;99.90;;;;;;6161673;23;20060;-71
2022/12/29 03:22:31;;;;;;;2.75;0.98;;;8.90;99.90;;;;;;6141614;23;20101;-71
2022/12/29 03:25:29;;;;;;;1.35;0.90;;;8.90;99.90;;;;;;6160812;23;20032;-72
2022/12/29 03:28:12;;;;;;;1.98;0.90;;;8.90;99.90;;;;;;6161367;23;20009;-71
2022/12/29 03:30:43;;;;;;;1.83;0.80;;;8.90;99.90;;;;;;6161618;23;20081;-71
2022/12/29 03:33:14;;;;;;;4.07;1.65;;;8.90;99.90;;;;;;6159852;23;20033;-72
2022/12/29 03:35:48;;;;;;;3.42;1.63;;;9.00;99.90;;;;;;6161002;23;20016;-71
2022/12/29 03:38:29;;;;;;;1.92;0.90;;;9.00;99.90;;;;;;6159656;23;20016;-71
2022/12/29 03:41:02;;;;;;;1.98;0.80;;;9.00;99.90;;;;;;6161065;23;20423;-71
2022/12/29 03:43:30;;;;;;;1.15;0.65;;;9.10;99.90;;;;;;6161604;23;20009;-71
2022/12/29 03:46:03;;;;;;;4.95;0.93;;;9.10;99.90;;;;;;6161008;23;19997;-71
2022/12/29 03:48:32;;;;;;;1.67;0.60;;;9.20;99.90;;;;;;6159636;23;20009;-71
2022/12/29 03:51:00;;;;;;;1.80;0.70;;;9.20;99.90;;;;;;6160901;23;20006;-71
2022/12/29 03:53:27;;;;;;;1.13;0.50;;;9.30;99.90;;;;;;6160914;23;20080;-71
2022/12/29 03:55:54;;;;;;;1.00;0.60;;;9.40;99.90;;;;;;6160926;23;20036;-71
2022/12/29 03:58:21;;;;;;;1.55;0.57;;;9.50;99.90;;;;;;6161302;23;20006;-71
2022/12/29 04:00:48;;;;;;;2.78;0.63;;;9.60;99.90;;;;;;6160781;23;20002;-71
2022/12/29 04:03:16;;;;;;;1.10;0.60;;;9.60;99.90;;;;;;6160754;23;20024;-71
2022/12/29 04:05:43;;;;;;;0.98;0.60;;;9.60;99.90;;;;;;6159419;23;20002;-71
2022/12/29 04:08:10;;;;;;;2.63;1.20;;;9.60;99.90;;;;;;6160829;23;20006;-71
2022/12/29 04:10:37;;;;;;;0.75;0.50;;;9.70;99.90;;;;;;6160254;23;20005;-71
2022/12/29 04:13:05;;;;;;;1.33;0.75;;;9.70;99.90;;;;;;6159451;23;20279;-71
2022/12/29 04:15:33;;;;;;;5.47;0.60;;;9.70;99.90;;;;;;6160720;23;20068;-71
2022/12/29 04:18:00;;;;;;;1.23;0.55;;;9.80;99.90;;;;;;6159674;23;20005;-71
2022/12/29 04:23:13;;;;;;;1.52;0.70;;;9.80;99.90;;;;;;6161023;23;20263;-71
2022/12/29 04:25:40;;;;;;;0.98;0.50;;;9.80;99.90;;;;;;6160720;23;20041;-71
2022/12/29 04:28:07;;;;;;;1.83;0.60;;;9.90;99.90;;;;;;6159626;23;20066;-71
2022/12/29 04:30:35;;;;;;;0.90;0.50;;;9.90;99.90;;;;;;6160487;23;20005;-71
2022/12/29 04:33:02;;;;;;;1.20;0.55;;;9.90;99.90;;;;;;6161611;23;20291;-71
2022/12/29 04:35:29;;;;;;;1.38;0.40;;;9.90;99.90;;;;;;6159138;23;20319;-71
2022/12/29 04:37:57;;;;;;;2.33;0.47;;;9.90;99.90;;;;;;6161202;23;20044;-71
2022/12/29 04:40:24;;;;;;;1.27;0.63;;;9.90;99.90;;;;;;6159156;23;20088;-71
2022/12/29 04:42:52;;;;;;;1.55;1.00;;;10.00;99.90;;;;;;6159149;23;20005;-71
2022/12/29 04:45:19;;;;;;;3.75;1.20;;;10.00;99.90;;;;;;6160383;23;20001;-71
2022/12/29 04:47:46;;;;;;;0.90;0.43;;;10.00;99.90;;;;;;6159454;23;20006;-71
2022/12/29 04:50:13;;;;;;;0.80;0.38;;;10.00;99.90;;;;;;6134425;23;20006;-71
2022/12/29 04:52:40;;;;;;;0.65;0.47;;;10.10;99.90;;;;;;6160779;23;20241;-71
2022/12/29 04:55:08;;;;;;;1.10;0.45;;;10.10;99.90;;;;;;6160338;23;20061;-71
2022/12/29 04:57:35;;;;;;;1.27;0.50;;;10.10;99.90;;;;;;6160508;23;20002;-71
2022/12/29 05:00:03;;;;;;;3.05;0.50;;;10.10;99.90;;;;;;6159742;23;20060;-71
2022/12/29 05:02:30;;;;;;;1.02;0.50;;;10.10;99.90;;;;;;6160367;23;20001;-71
2022/12/29 05:04:57;;;;;;;0.77;0.40;;;10.20;99.90;;;;;;6158904;23;20009;-71
2022/12/29 05:07:24;;;;;;;1.15;0.45;;;10.20;99.90;;;;;;6160453;23;20125;-71
2022/12/29 05:09:52;;;;;;;1.85;0.50;;;10.20;99.90;;;;;;6160946;23;20001;-71
2022/12/29 05:12:20;;;;;;;2.42;0.68;;;10.30;99.90;;;;;;6160238;23;20028;-71
2022/12/29 05:14:47;;;;;;;1.20;0.50;;;10.30;99.90;;;;;;6160236;23;20028;-71
2022/12/29 05:17:14;;;;;;;0.50;0.22;;;10.40;99.90;;;;;;6160803;23;20006;-71
2022/12/29 05:19:41;;;;;;;2.28;0.90;;;10.40;99.90;;;;;;6159560;23;20005;-71
2022/12/29 05:22:08;;;;;;;1.30;0.50;;;10.40;99.90;;;;;;6160688;23;20002;-71
2022/12/29 05:24:35;;;;;;;1.48;0.30;;;10.30;99.90;;;;;;6160013;23;20081;-71
2022/12/29 05:27:03;;;;;;;1.50;0.60;;;10.20;99.90;;;;;;6158805;23;20049;-71
2022/12/29 05:29:30;;;;;;;0.70;0.35;;;10.10;99.90;;;;;;6159622;23;20315;-71
2022/12/29 05:31:57;;;;;;;1.42;0.85;;;10.00;99.90;;;;;;6134500;23;20005;-71
2022/12/29 05:34:24;;;;;;;2.22;0.50;;;9.80;99.90;;;;;;6158635;23;20016;-71
2022/12/29 05:36:52;;;;;;;1.08;0.40;;;9.70;99.90;;;;;;6158626;23;20016;-71
2022/12/29 05:39:19;;;;;;;1.33;0.60;;;9.70;99.90;;;;;;6158734;23;20308;-71
2022/12/29 05:41:47;;;;;;;0.40;0.30;;;9.60;99.90;;;;;;6160692;23;20008;-71
2022/12/29 05:44:14;;;;;;;1.73;0.82;;;9.50;99.90;;;;;;6161160;23;20002;-71
2022/12/29 05:46:41;;;;;;;1.20;0.40;;;9.50;99.90;;;;;;6159897;23;20013;-71
2022/12/29 05:49:08;;;;;;;1.85;0.60;;;9.40;99.90;;;;;;6159436;23;20052;-71
2022/12/29 05:51:36;;;;;;;2.33;0.90;;;9.40;99.90;;;;;;6159973;23;20005;-71
2022/12/29 05:54:04;;;;;;;0.75;0.45;;;9.30;99.90;;;;;;6160157;23;20009;-71
2022/12/29 05:56:31;;;;;;;1.33;0.43;;;9.30;99.90;;;;;;6159758;23;20020;-71
2022/12/29 05:58:58;;;;;;;1.58;0.38;;;9.30;99.90;;;;;;6160944;23;20252;-71
2022/12/29 06:01:26;;;;;;;0.90;0.50;;;9.30;99.90;;;;;;6158600;23;20378;-71
2022/12/29 06:03:53;;;;;;;0.95;0.50;;;9.30;99.90;;;;;;6158698;23;20054;-71
2022/12/29 06:06:21;;;;;;;1.10;0.50;;;9.30;99.90;;;;;;6159911;23;20002;-71
2022/12/29 06:08:49;;;;;;;1.30;0.50;;;9.30;99.90;;;;;;6158595;23;20410;-71
2022/12/29 06:11:16;;;;;;;0.75;0.40;;;9.30;99.90;;;;;;6160242;23;20002;-71
2022/12/29 06:13:43;;;;;;;1.63;0.52;;;9.30;99.90;;;;;;6158673;23;20005;-71
2022/12/29 06:16:10;;;;;;;2.38;1.35;;;9.40;99.90;;;;;;6160503;23;20052;-71
2022/12/29 06:18:37;;;;;;;1.30;0.52;;;9.40;99.90;;;;;;6158433;23;20060;-71
2022/12/29 06:21:05;;;;;;;0.60;0.40;;;9.40;99.90;;;;;;6134036;23;20275;-71
2022/12/29 06:23:32;;;;;;;2.25;0.40;;;9.40;99.90;;;;;;6160635;23;20001;-71
2022/12/29 06:26:00;;;;;;;0.82;0.35;;;9.50;99.90;;;;;;6159534;23;20013;-71
2022/12/29 06:28:27;;;;;;;0.75;0.47;;;9.50;99.90;;;;;;6160468;23;20006;-71
2022/12/29 06:30:54;;;;;;;0.47;0.30;;;9.60;99.90;;;;;;6158440;23;20064;-71
2022/12/29 06:33:21;;;;;;;0.55;0.30;;;9.60;99.90;;;;;;6160279;23;20005;-71
2022/12/29 06:35:49;;;;;;;0.30;0.25;;;9.60;99.90;;;;;;6161563;23;20271;-71
2022/12/29 06:38:16;;;;;;;0.68;0.40;;;9.60;99.90;;;;;;6162247;23;20303;-71
2022/12/29 06:40:44;;;;;;;1.80;0.60;;;9.70;99.90;;;;;;6162322;23;20443;-71
2022/12/29 06:43:12;;;;;;;1.73;0.30;;;9.70;99.90;;;;;;6161547;23;20113;-71
2022/12/29 06:45:40;;;;;;;0.82;0.30;;;9.70;99.90;;;;;;6162276;23;20052;-71
2022/12/29 06:48:07;;;;;;;2.05;0.40;;;9.70;99.90;;;;;;6161645;23;20009;-71
2022/12/29 06:50:35;;;;;;;0.90;0.25;;;9.70;99.90;;;;;;6160199;23;20010;-71
2022/12/29 06:53:03;;;;;;;0.25;0.10;;;9.80;99.90;;;;;;6161627;23;20006;-71
2022/12/29 06:55:30;;;;;;;2.38;0.40;;;9.90;99.90;;;;;;6160330;23;20025;-71
2022/12/29 06:57:58;;;;;;;0.63;0.28;;;10.10;99.90;;;;;;6160673;23;20322;-71
2022/12/29 07:00:26;;;;;;;1.45;0.40;;;10.20;99.90;;;;;;6160116;23;20012;-71
2022/12/29 07:02:57;;;;;;;0.57;0.30;;;10.30;99.90;;;;;;6161410;23;20068;-71
2022/12/29 07:05:27;;;;;;;0.38;0.25;;;10.40;99.90;;;;;;6160376;23;20005;-71
2022/12/29 07:07:55;;;;;;;0.70;0.20;;;10.50;99.90;;;;;;6161486;23;20006;-71
2022/12/29 07:10:22;;;;;;;0.30;0.20;;;10.70;99.90;;;;;;6160833;23;20064;-71
2022/12/29 07:12:50;;;;;;;0.32;0.10;;;10.70;99.90;;;;;;6160842;23;20012;-72
2022/12/29 07:15:18;;;;;;;4.85;0.40;;;10.80;99.90;;;;;;6159972;23;20002;-72
2022/12/29 07:17:45;;;;;;;0.60;0.20;;;10.80;99.90;;;;;;6161391;23;20271;-72
2022/12/29 07:20:13;;;;;;;0.80;0.40;;;10.80;99.90;;;;;;6161174;23;19998;-72
2022/12/29 07:22:40;;;;;;;0.60;0.30;;;10.70;99.90;;;;;;6161284;23;20009;-72
2022/12/29 07:25:08;;;;;;;0.65;0.38;;;10.70;99.90;;;;;;6160262;23;20045;-72
2022/12/29 07:27:37;;;;;;;2.05;0.38;;;10.60;99.90;;;;;;6161696;23;20005;-71
2022/12/29 07:30:04;;;;;;;0.30;0.20;;;10.50;99.90;;;;;;6161830;23;20009;-71
2022/12/29 07:32:35;;;;;;;0.75;0.30;;;10.40;99.90;;;;;;6161246;23;20010;-71
2022/12/29 07:35:03;;;;;;;0.63;0.30;;;10.30;99.90;;;;;;6161047;23;20028;-72
2022/12/29 07:37:30;;;;;;;1.27;0.35;;;10.20;99.90;;;;;;6159895;23;20041;-72
2022/12/29 07:39:57;;;;;;;0.80;0.40;;;10.20;99.90;;;;;;6161469;23;20240;-72
2022/12/29 07:42:25;;;;;;;0.73;0.30;;;10.10;99.90;;;;;;6161069;23;20004;-71
2022/12/29 07:44:52;;;;;;;2.17;0.30;;;10.00;99.90;;;;;;6159583;23;20382;-72
2022/12/29 07:47:20;;;;;;;2.13;0.38;;;9.90;99.90;;;;;;6161183;23;20073;-71
2022/12/29 07:49:47;;;;;;;1.10;0.40;;;9.90;99.90;;;;;;6159554;23;20017;-72
2022/12/29 07:52:14;;;;;;;0.80;0.35;;;9.90;99.90;;;;;;6160458;23;20056;-72
2022/12/29 07:54:42;;;;;;;0.45;0.28;;;9.90;99.90;;;;;;6159575;23;20279;-72
2022/12/29 07:57:09;;;;;;;0.73;0.20;;;9.90;99.90;;;;;;6160886;23;20072;-71
2022/12/29 07:59:37;;;;;;;2.55;1.52;;;9.90;99.90;;;;;;6160883;23;20359;-72
2022/12/29 08:02:04;;;;;;;1.48;0.70;;;9.90;99.90;;;;;;6159344;23;20283;-72
2022/12/29 08:04:32;;;;;;;0.90;0.60;;;10.00;99.90;;;;;;6160692;23;20452;-71
2022/12/29 08:06:59;;;;;;;0.47;0.30;;;10.10;99.90;;;;;;6161401;23;20009;-71
2022/12/29 08:09:27;;;;;;;2.72;0.30;;;10.20;99.90;;;;;;6159610;23;20012;-71
2022/12/29 08:11:54;;;;;;;1.17;0.38;;;10.30;99.90;;;;;;6161432;23;20363;-72
2022/12/29 08:14:22;;;;;;;1.58;0.55;;;10.40;99.90;;;;;;6159641;23;20009;-71
2022/12/29 08:16:49;;;;;;;2.85;0.40;;;10.50;99.90;;;;;;6161315;23;20006;-71
2022/12/29 08:19:16;;;;;;;1.75;0.47;;;10.60;99.90;;;;;;6161033;23;20001;-71
2022/12/29 08:21:43;;;;;;;0.73;0.30;;;10.70;99.90;;;;;;6160584;23;20008;-71
2022/12/29 08:24:11;;;;;;;0.63;0.32;;;10.70;99.90;;;;;;6161183;23;20008;-71
2022/12/29 08:26:38;;;;;;;1.35;0.40;;;10.70;99.90;;;;;;6160514;23;20076;-71
2022/12/29 08:29:06;;;;;;;1.90;0.50;;;10.70;99.90;;;;;;6160968;23;19997;-71
2022/12/29 08:31:34;;;;;;;0.68;0.30;;;10.60;99.90;;;;;;6160604;23;20001;-71
2022/12/29 08:34:03;;;;;;;1.80;0.55;;;10.60;99.90;;;;;;6159354;23;20275;-71
2022/12/29 08:36:30;;;;;;;0.77;0.30;;;10.60;99.90;;;;;;6160359;23;20056;-71
2022/12/29 08:38:58;;;;;;;0.45;0.32;;;10.50;99.90;;;;;;6160593;23;20002;-71
2022/12/29 08:41:26;;;;;;;1.33;0.28;;;10.50;99.90;;;;;;6160548;23;20005;-71
2022/12/29 08:43:53;;;;;;;1.08;0.40;;;10.50;99.90;;;;;;6160729;23;20068;-71
2022/12/29 08:46:20;;;;;;;0.77;0.40;;;10.50;99.90;;;;;;6160509;23;20002;-71
2022/12/29 08:48:47;;;;;;;1.50;0.70;;;10.50;99.90;;;;;;6160447;23;20001;-71
2022/12/29 08:51:15;;;;;;;1.00;0.35;;;10.40;99.90;;;;;;6160381;23;20009;-71
2022/12/29 08:53:42;;;;;;;3.72;0.50;;;10.30;99.90;;;;;;6159238;23;20366;-71
2022/12/29 08:56:11;;;;;;;2.28;0.60;;;10.20;99.90;;;;;;6160795;23;20009;-71
2022/12/29 08:58:38;;;;;;;2.08;0.40;;;10.00;99.90;;;;;;6160629;23;20314;-71
2022/12/29 09:01:05;;;;;;;2.35;0.47;;;9.90;99.90;;;;;;6160973;23;20005;-71
2022/12/29 09:03:33;;;;;;;3.00;0.50;;;9.90;99.90;;;;;;6160392;23;20008;-71
2022/12/29 09:06:01;;;;;;;3.50;0.43;;;9.90;99.90;;;;;;6160605;23;20008;-71
2022/12/29 09:08:28;;;;;;;0.88;0.50;;;9.90;99.90;;;;;;6160942;23;20001;-71
2022/12/29 09:10:55;;;;;;;2.67;0.90;;;9.90;99.90;;;;;;6160957;23;20006;-71
2022/12/29 09:13:22;;;;;;;2.90;0.40;;;9.90;99.90;;;;;;6159665;23;20005;-71
2022/12/29 09:15:59;;;;;;;1.58;0.60;;;9.90;99.90;;;;;;6160072;23;20252;-71
2022/12/29 09:18:26;;;;;;;0.82;0.40;;;9.80;99.90;;;;;;6160398;23;20012;-71
2022/12/29 09:20:58;;;;;;;1.40;0.30;;;9.90;99.90;;;;;;6160131;23;20001;-71
2022/12/29 09:23:26;;;;;;;0.98;0.50;;;9.90;99.90;;;;;;6160814;23;20022;-71
2022/12/29 09:25:54;;;;;;;3.42;0.40;;;10.00;99.90;;;;;;6159878;23;20405;-71
2022/12/29 09:28:22;;;;;;;1.73;0.47;;;10.00;99.90;;;;;;6158809;23;20387;-71
2022/12/29 09:30:50;;;;;;;3.15;1.17;;;10.00;99.90;;;;;;6158768;23;20013;-71
2022/12/29 09:33:17;;;;;;;1.13;0.50;;;10.00;99.90;;;;;;6160615;23;20375;-71
2022/12/29 09:35:51;;;;;;;1.83;0.30;;;10.10;99.90;;;;;;6160035;23;20001;-71
2022/12/29 09:38:20;;;;;;;1.23;0.30;;;10.10;99.90;;;;;;6160309;23;20013;-71
2022/12/29 09:40:55;;;;;;;2.22;0.40;;;10.20;99.90;;;;;;6159972;23;20006;-71
2022/12/29 09:43:38;;;;;;;1.15;0.32;;;10.20;99.90;;;;;;6159987;23;20006;-71
2022/12/29 09:46:19;;;;;;;3.75;0.43;;;10.30;99.90;;;;;;6160030;23;20454;-71
2022/12/29 09:48:53;;;;;;;2.20;0.47;;;10.40;99.90;;;;;;6160411;23;20445;-71
2022/12/29 09:51:24;;;;;;;3.13;0.57;;;10.50;99.90;;;;;;6159890;23;20005;-71
2022/12/29 09:54:33;;;;;;;0.90;0.50;;;10.50;99.90;;;;;;6159979;23;20060;-71
2022/12/29 09:57:00;;;;;;;2.00;0.50;;;10.60;99.90;;;;;;6154872;23;20399;-71
2022/12/29 09:59:42;;;;;;;1.60;0.40;;;10.50;99.90;;;;;;6159853;23;20006;-71
2022/12/29 10:02:40;;;;;;;1.70;0.40;;;10.50;99.90;;;;;;6160006;23;20002;-71
2022/12/29 10:05:32;;;;;;;2.55;0.40;;;10.50;99.90;;;;;;6160029;23;20001;-71
2022/12/29 10:08:38;;;;;;;3.25;0.60;;;10.40;99.90;;;;;;6161239;23;20012;-71
2022/12/29 10:11:26;;;;;;;3.13;0.63;;;10.50;99.90;;;;;;6161821;23;20010;-71
2022/12/29 10:14:15;;;;;;;4.10;0.60;;;10.70;99.90;;;;;;6160571;23;20010;-71
2022/12/29 10:16:58;;;;;;;2.92;0.50;;;10.70;99.90;;;;;;6162075;23;20001;-71
2022/12/29 10:19:58;;;;;;;3.25;0.40;;;10.80;99.90;;;;;;6162800;23;19998;-71
2022/12/29 10:22:37;;;;;;;1.05;0.28;;;10.90;99.90;;;;;;6162481;23;20001;-71
2022/12/29 10:25:17;;;;;;;3.60;0.65;;;10.80;99.90;;;;;;6161431;23;20041;-72
2022/12/29 10:27:49;;;;;;;2.90;0.28;;;10.80;99.90;;;;;;6160405;23;20034;-72
2022/12/29 10:30:18;;;;;;;7.15;2.45;;;10.80;99.90;;;;;;6160431;23;20260;-72
2022/12/29 10:32:53;;;;;;;7.88;1.25;;;10.80;99.90;;;;;;6161720;23;20001;-72
2022/12/29 10:35:27;;;;;;;1.42;0.47;;;10.80;99.90;;;;;;6161669;23;20056;-71
2022/12/29 10:38:22;;;;;;;3.60;0.65;;;10.90;99.90;;;;;;6162079;23;20002;-72
2022/12/29 10:40:55;;;;;;;3.13;0.60;;;10.90;99.90;;;;;;6162002;23;20002;-71
2022/12/29 10:43:47;;;;;;;3.38;0.60;;;10.90;99.90;;;;;;6162487;23;19997;-72
2022/12/29 10:46:19;;;;;;;3.63;0.63;;;11.00;99.90;;;;;;6161603;23;20060;-72
2022/12/29 10:48:47;;;;;;;2.97;0.90;;;11.00;99.90;;;;;;6161549;23;20032;-72
2022/12/29 10:51:38;;;;;;;2.30;0.77;;;11.00;99.90;;;;;;6162226;23;20060;-72
2022/12/29 10:54:14;;;;;;;1.52;0.45;;;11.10;99.90;;;;;;6160352;23;20342;-72
2022/12/29 10:56:52;;;;;;;4.70;1.25;;;11.10;99.90;;;;;;6161342;23;20006;-72
2022/12/29 10:59:22;;;;;;;3.15;0.52;;;11.10;99.90;;;;;;6162225;23;20098;-71
2022/12/29 11:02:11;;;;;;;1.08;0.43;;;11.00;99.90;;;;;;6161746;23;20006;-72
2022/12/29 11:04:56;;;;;;;2.75;0.45;;;10.90;99.90;;;;;;6161260;23;20001;-72
2022/12/29 11:07:25;;;;;;;8.07;1.10;;;10.90;99.90;;;;;;6161263;23;20278;-71
2022/12/29 11:09:53;;;;;;;5.65;1.13;;;10.80;99.90;;;;;;6161179;23;20009;-72
2022/12/29 11:12:27;;;;;;;2.75;0.63;;;10.80;99.90;;;;;;6161566;23;20078;-74
2022/12/29 11:15:21;;;;;;;3.67;0.63;;;10.70;99.90;;;;;;6161279;23;20002;-70
2022/12/29 11:17:57;;;;;;;2.45;0.60;;;10.60;99.90;;;;;;6156590;23;20148;-68
2022/12/29 11:20:39;;;;;;;1.80;0.60;;;10.60;99.90;;;;;;6160833;23;19997;-68
2022/12/29 11:23:25;;;;;;;4.05;0.50;;;10.60;99.90;;;;;;6161697;23;19997;-67
2022/12/29 11:26:16;;;;;;;3.55;0.73;;;10.60;99.90;;;;;;6161243;23;20014;-69
2022/12/29 11:29:04;;;;;;;7.38;1.27;;;10.60;99.90;;;;;;6161173;23;20002;-68
2022/12/29 11:31:41;;;;;;;1.88;0.32;;;10.60;99.90;;;;;;6161509;23;20006;-73
2022/12/29 11:34:09;;;;;;;3.58;0.80;;;10.60;99.90;;;;;;6161148;23;20014;-69
2022/12/29 11:36:36;;;;;;;1.98;0.55;;;10.70;99.90;;;;;;6160975;23;20406;-78
2022/12/29 11:39:04;;;;;;;1.60;0.60;;;10.70;99.90;;;;;;6160571;23;20378;-69
2022/12/29 11:41:33;;;;;;;4.55;0.73;;;10.80;99.90;;;;;;6159718;23;20006;-69
2022/12/29 11:44:05;;;;;;;6.28;1.02;;;10.80;99.90;;;;;;6161230;23;20026;-69
2022/12/29 11:46:38;;;;;;;2.95;0.63;;;10.90;99.90;;;;;;6160945;23;20050;-69
2022/12/29 11:49:06;;;;;;;5.72;0.95;;;10.90;99.90;;;;;;6160767;23;20028;-69
2022/12/29 11:51:47;;;;;;;1.88;0.68;;;11.00;99.90;;;;;;6160904;23;20028;-68
2022/12/29 11:54:25;;;;;;;1.83;0.60;;;11.00;99.90;;;;;;6160893;23;20002;-69
2022/12/29 11:56:53;;;;;;;2.33;0.52;;;11.00;99.90;;;;;;6159440;23;20459;-69
2022/12/29 11:59:29;;;;;;;2.20;0.55;;;11.00;99.90;;;;;;6160833;23;20025;-70
2022/12/29 12:02:10;;;;;;;4.85;0.75;;;11.00;99.90;;;;;;6161576;23;20002;-70
2022/12/29 12:04:38;;;;;;;2.25;0.52;;;11.00;99.90;;;;;;6160791;23;20005;-70
2022/12/29 12:07:31;;;;;;;2.53;0.50;;;11.00;99.90;;;;;;6160818;23;20126;-70
2022/12/29 12:10:07;;;;;;;6.20;0.80;;;11.00;99.90;;;;;;6160787;23;20001;-70
2022/12/29 12:13:17;;;;;;;3.03;0.98;;;11.00;99.90;;;;;;6160854;23;20006;-69
2022/12/29 12:15:51;;;;;;;3.20;0.80;;;10.90;99.90;;;;;;6145292;23;20461;-68
2022/12/29 12:18:37;;;;;;;4.72;1.10;;;10.80;99.90;;;;;;6161280;23;20012;-69
2022/12/29 12:21:15;;;;;;;3.95;1.23;;;10.80;99.90;;;;;;6161344;23;20284;-68
2022/12/29 12:24:01;;;;;;;5.72;1.15;;;10.70;99.90;;;;;;6161189;23;20293;-69
2022/12/29 12:26:55;;;;;;;3.38;1.00;;;10.70;99.90;;;;;;6160599;23;20021;-68
2022/12/29 12:29:33;;;;;;;3.58;1.15;;;10.70;99.90;;;;;;6164936;23;20009;-68
2022/12/29 12:32:09;;;;;;;2.10;0.80;;;10.70;99.90;;;;;;6166519;23;20012;-70
2022/12/29 12:34:39;;;;;;;6.82;0.80;;;10.70;99.90;;;;;;6164970;23;20002;-68
2022/12/29 12:37:27;;;;;;;2.55;0.80;;;10.70;99.90;;;;;;6164744;23;20057;-71
2022/12/29 12:40:31;;;;;;;1.98;0.50;;;10.70;99.90;;;;;;6169496;23;20021;-68
2022/12/29 12:43:30;;;;;;;3.60;0.70;;;10.80;99.90;;;;;;6169566;23;20001;-70
2022/12/29 12:46:16;;;;;;;2.50;0.77;;;10.70;99.90;;;;;;6165100;23;20077;-69
2022/12/29 12:49:08;;;;;;;5.83;1.53;;;10.80;99.90;;;;;;6161060;23;20005;-69
2022/12/29 12:52:02;;;;;;;5.30;1.30;;;10.80;99.90;;;;;;6160629;23;20002;-69
2022/12/29 12:54:50;;;;;;;4.50;0.90;;;10.80;99.90;;;;;;6161067;23;20029;-69
2022/12/29 12:57:42;;;;;;;3.65;1.17;;;10.70;99.90;;;;;;6158917;23;20005;-69
2022/12/29 13:00:22;;;;;;;4.57;0.70;;;10.70;99.90;;;;;;6161045;23;19998;-69
2022/12/29 13:03:14;;;;;;;2.00;0.93;;;10.70;99.90;;;;;;6160646;23;20009;-69
2022/12/29 13:05:51;;;;;;;5.20;0.77;;;10.70;99.90;;;;;;6160237;23;20100;-72
2022/12/29 13:09:29;;;;;;;3.65;1.00;;;10.70;99.90;;;;;;6159093;23;20069;-69
2022/12/29 13:12:30;;;;;;;3.78;1.13;;;10.70;99.90;;;;;;6018805;23;20432;-69
2022/12/29 13:15:07;;;;;;;3.35;1.10;;;10.60;99.90;;;;;;6160066;23;20009;-69
2022/12/29 13:17:42;;;;;;;8.43;1.20;;;10.70;99.90;;;;;;6160969;23;20001;-69
2022/12/29 13:20:19;;;;;;;5.35;0.88;;;10.60;99.90;;;;;;6160441;23;20312;-69
2022/12/29 13:23:22;;;;;;;3.63;1.00;;;10.60;99.90;;;;;;6160548;23;20320;-69
2022/12/29 13:26:07;;;;;;;5.25;1.48;;;10.60;99.90;;;;;;6160246;23;20014;-69
2022/12/29 13:29:01;;;;;;;4.32;0.60;;;10.50;99.90;;;;;;6160939;23;20032;-69
2022/12/29 13:31:36;;;;;;;6.88;1.10;;;10.60;99.90;;;;;;6160367;23;20072;-69
2022/12/29 13:34:14;;;;;;;2.15;0.57;;;10.50;99.90;;;;;;6160507;23;20005;-70
2022/12/29 13:36:50;;;;;;;3.55;1.05;;;10.50;99.90;;;;;;6159950;23;20008;-69
2022/12/29 13:39:29;;;;;;;6.47;1.33;;;10.50;99.90;;;;;;6158799;23;20012;-70
2022/12/29 13:41:59;;;;;;;5.65;1.23;;;10.50;99.90;;;;;;6160502;23;20005;-69
2022/12/29 13:44:36;;;;;;;3.95;0.60;;;10.50;99.90;;;;;;6158631;23;20055;-69
2022/12/29 13:47:26;;;;;;;4.53;1.00;;;10.50;99.90;;;;;;6160831;23;20267;-69
2022/12/29 13:49:58;;;;;;;4.85;0.98;;;10.50;99.90;;;;;;6159842;23;20002;-69
2022/12/29 13:52:56;;;;;;;5.63;0.60;;;10.50;99.90;;;;;;6160627;23;20013;-69
2022/12/29 13:55:36;;;;;;;3.78;0.98;;;10.60;99.90;;;;;;6160253;23;20259;-69
2022/12/29 13:58:22;;;;;;;6.15;0.73;;;10.50;99.90;;;;;;6160301;23;20016;-69
2022/12/29 14:01:09;;;;;;;7.15;0.90;;;10.50;99.90;;;;;;6159870;23;19998;-69
2022/12/29 14:03:55;;;;;;;4.40;0.75;;;10.50;99.90;;;;;;6160500;23;20025;-69
2022/12/29 14:06:26;;;;;;;6.25;0.80;;;10.50;99.90;;;;;;6160182;23;20017;-69